sensor_id;sensor_type;location;lat;lon;timestamp;pressure;altitude;pressure_sealevel;temperature;humidity
13952;BME280;39535;52.192;9.886;2022-12-31T00:00:04;99243.63;;;11.15;100.00
13952;BME280;39535;52.192;9.886;2022-12-31T00:02:30;99258.56;;;11.11;100.00
13952;BME280;39535;52.192;9.886;2022-12-31T00:04:57;99268.75;;;11.17;100.00
13952;BME280;39535;52.192;9.886;2022-12-31T00:07:23;99272.09;;;11.21;100.00
13952;BME280;39535;52.192;9.886;2022-12-31T00:09:51;99279.41;;;11.12;100.00
13952;BME280;39535;52.192;9.886;2022-12-31T00:12:17;99291.38;;;11.18;100.00
13952;BME280;39535;52.192;9.886;2022-12-31T00:14:43;99289.78;;;11.14;100.00
13952;BME280;39535;52.192;9.886;2022-12-31T00:17:09;99261.09;;;11.12;100.00
13952;BME280;39535;52.192;9.886;2022-12-31T00:19:36;99241.19;;;11.10;100.00
13952;BME280;39535;52.192;9.886;2022-12-31T00:22:02;99248.94;;;11.11;100.00
13952;BME280;39535;52.192;9.886;2022-12-31T00:24:29;99236.81;;;11.10;100.00
13952;BME280;39535;52.192;9.886;2022-12-31T00:26:56;99242.78;;;11.14;100.00
13952;BME280;39535;52.192;9.886;2022-12-31T00:29:23;99244.59;;;11.12;100.00
13952;BME280;39535;52.192;9.886;2022-12-31T00:31:49;99255.88;;;11.12;100.00
13952;BME280;39535;52.192;9.886;2022-12-31T00:34:15;99260.84;;;11.19;100.00
13952;BME280;39535;52.192;9.886;2022-12-31T00:36:42;99272.78;;;11.26;100.00
13952;BME280;39535;52.192;9.886;2022-12-31T00:39:10;99275.50;;;11.23;100.00
13952;BME280;39535;52.192;9.886;2022-12-31T00:41:36;99272.81;;;11.24;100.00
13952;BME280;39535;52.192;9.886;2022-12-31T00:44:04;99272.63;;;11.29;100.00
13952;BME280;39535;52.192;9.886;2022-12-31T00:46:30;99278.63;;;11.31;100.00
13952;BME280;39535;52.192;9.886;2022-12-31T00:48:57;99285.38;;;11.37;100.00
13952;BME280;39535;52.192;9.886;2022-12-31T00:51:23;99281.97;;;11.35;100.00
13952;BME280;39535;52.192;9.886;2022-12-31T00:53:51;99290.66;;;11.35;100.00
13952;BME280;39535;52.192;9.886;2022-12-31T00:56:20;99301.06;;;11.37;100.00
13952;BME280;39535;52.192;9.886;2022-12-31T00:58:47;99299.22;;;11.39;100.00
13952;BME280;39535;52.192;9.886;2022-12-31T01:01:16;99297.28;;;11.44;100.00
13952;BME280;39535;52.192;9.886;2022-12-31T01:03:44;99304.94;;;11.48;100.00
13952;BME280;39535;52.192;9.886;2022-12-31T01:06:11;99307.56;;;11.48;100.00
13952;BME280;39535;52.192;9.886;2022-12-31T01:08:37;99312.56;;;11.53;100.00
13952;BME280;39535;52.192;9.886;2022-12-31T01:11:04;99316.06;;;11.53;100.00
13952;BME280;39535;52.192;9.886;2022-12-31T01:13:49;99314.28;;;11.54;100.00
13952;BME280;39535;52.192;9.886;2022-12-31T01:16:18;99314.34;;;11.52;100.00
13952;BME280;39535;52.192;9.886;2022-12-31T01:18:45;99318.59;;;11.55;100.00
13952;BME280;39535;52.192;9.886;2022-12-31T01:21:12;99309.31;;;11.48;100.00
13952;BME280;39535;52.192;9.886;2022-12-31T01:23:39;99317.94;;;11.50;100.00
13952;BME280;39535;52.192;9.886;2022-12-31T01:26:07;99312.63;;;11.51;100.00
13952;BME280;39535;52.192;9.886;2022-12-31T01:28:34;99315.44;;;11.47;100.00
13952;BME280;39535;52.192;9.886;2022-12-31T01:31:03;99307.75;;;11.44;100.00
13952;BME280;39535;52.192;9.886;2022-12-31T01:33:31;99312.03;;;11.45;100.00
13952;BME280;39535;52.192;9.886;2022-12-31T01:36:01;99294.75;;;11.42;100.00
13952;BME280;39535;52.192;9.886;2022-12-31T01:38:28;99300.03;;;11.41;100.00
13952;BME280;39535;52.192;9.886;2022-12-31T01:40:54;99277.59;;;11.35;100.00
13952;BME280;39535;52.192;9.886;2022-12-31T01:43:20;99272.31;;;11.37;100.00
13952;BME280;39535;52.192;9.886;2022-12-31T01:45:50;99263.81;;;11.31;100.00
13952;BME280;39535;52.192;9.886;2022-12-31T01:48:21;99269.03;;;11.31;100.00
13952;BME280;39535;52.192;9.886;2022-12-31T01:50:50;99263.63;;;11.36;100.00
13952;BME280;39535;52.192;9.886;2022-12-31T01:53:17;99246.97;;;11.39;100.00
13952;BME280;39535;52.192;9.886;2022-12-31T01:55:47;99251.94;;;11.45;100.00
13952;BME280;39535;52.192;9.886;2022-12-31T01:58:18;99258.63;;;11.52;100.00
13952;BME280;39535;52.192;9.886;2022-12-31T02:00:45;99266.53;;;11.50;100.00
13952;BME280;39535;52.192;9.886;2022-12-31T02:03:12;99265.38;;;11.58;100.00
13952;BME280;39535;52.192;9.886;2022-12-31T02:05:43;99269.88;;;11.54;100.00
13952;BME280;39535;52.192;9.886;2022-12-31T02:08:12;99273.84;;;11.63;100.00
13952;BME280;39535;52.192;9.886;2022-12-31T02:10:39;99282.47;;;11.65;100.00
13952;BME280;39535;52.192;9.886;2022-12-31T02:13:06;99284.91;;;11.69;100.00
13952;BME280;39535;52.192;9.886;2022-12-31T02:15:38;99294.44;;;11.70;100.00
13952;BME280;39535;52.192;9.886;2022-12-31T02:18:11;99283.88;;;11.73;100.00
13952;BME280;39535;52.192;9.886;2022-12-31T02:20:57;99298.34;;;11.81;100.00
13952;BME280;39535;52.192;9.886;2022-12-31T02:24:03;99302.81;;;11.79;100.00
13952;BME280;39535;52.192;9.886;2022-12-31T02:26:47;99306.53;;;11.73;100.00
13952;BME280;39535;52.192;9.886;2022-12-31T02:32:31;99293.41;;;11.75;100.00
13952;BME280;39535;52.192;9.886;2022-12-31T02:35:06;99301.38;;;11.71;100.00
13952;BME280;39535;52.192;9.886;2022-12-31T02:37:37;99298.56;;;11.76;100.00
13952;BME280;39535;52.192;9.886;2022-12-31T02:40:06;99302.88;;;11.77;100.00
13952;BME280;39535;52.192;9.886;2022-12-31T02:42:34;99292.41;;;11.77;100.00
13952;BME280;39535;52.192;9.886;2022-12-31T02:45:01;99290.56;;;11.79;100.00
13952;BME280;39535;52.192;9.886;2022-12-31T02:47:39;99296.84;;;11.75;100.00
13952;BME280;39535;52.192;9.886;2022-12-31T02:50:22;99297.72;;;11.76;100.00
13952;BME280;39535;52.192;9.886;2022-12-31T02:52:59;99287.53;;;11.69;100.00
13952;BME280;39535;52.192;9.886;2022-12-31T02:55:35;99271.91;;;11.68;100.00
13952;BME280;39535;52.192;9.886;2022-12-31T02:58:11;99273.66;;;11.67;100.00
13952;BME280;39535;52.192;9.886;2022-12-31T03:00:43;99276.94;;;11.72;100.00
13952;BME280;39535;52.192;9.886;2022-12-31T03:03:30;99274.38;;;11.71;100.00
13952;BME280;39535;52.192;9.886;2022-12-31T03:05:57;99280.25;;;11.76;100.00
13952;BME280;39535;52.192;9.886;2022-12-31T03:08:27;99272.38;;;11.78;100.00
13952;BME280;39535;52.192;9.886;2022-12-31T03:10:53;99259.56;;;11.71;100.00
13952;BME280;39535;52.192;9.886;2022-12-31T03:13:21;99245.81;;;11.66;100.00
13952;BME280;39535;52.192;9.886;2022-12-31T03:15:46;99212.34;;;11.75;100.00
13952;BME280;39535;52.192;9.886;2022-12-31T03:18:15;99228.75;;;11.78;100.00
13952;BME280;39535;52.192;9.886;2022-12-31T03:20:44;99196.09;;;11.68;100.00
13952;BME280;39535;52.192;9.886;2022-12-31T03:23:31;99185.44;;;11.72;100.00
13952;BME280;39535;52.192;9.886;2022-12-31T03:25:59;99183.53;;;11.76;100.00
13952;BME280;39535;52.192;9.886;2022-12-31T03:28:26;99182.09;;;11.69;100.00
13952;BME280;39535;52.192;9.886;2022-12-31T03:30:55;99176.81;;;11.70;100.00
13952;BME280;39535;52.192;9.886;2022-12-31T03:33:23;99180.34;;;11.69;100.00
13952;BME280;39535;52.192;9.886;2022-12-31T03:35:52;99174.75;;;11.77;100.00
13952;BME280;39535;52.192;9.886;2022-12-31T03:38:19;99178.03;;;11.82;100.00
13952;BME280;39535;52.192;9.886;2022-12-31T03:40:47;99175.34;;;11.84;100.00
13952;BME280;39535;52.192;9.886;2022-12-31T03:43:13;99176.06;;;11.87;100.00
13952;BME280;39535;52.192;9.886;2022-12-31T03:45:40;99175.19;;;11.87;100.00
13952;BME280;39535;52.192;9.886;2022-12-31T03:48:07;99172.59;;;11.87;100.00
13952;BME280;39535;52.192;9.886;2022-12-31T03:50:35;99170.91;;;11.86;100.00
13952;BME280;39535;52.192;9.886;2022-12-31T03:53:02;99169.13;;;11.86;100.00
13952;BME280;39535;52.192;9.886;2022-12-31T03:55:29;99170.84;;;11.87;100.00
13952;BME280;39535;52.192;9.886;2022-12-31T03:57:55;99175.13;;;11.88;100.00
13952;BME280;39535;52.192;9.886;2022-12-31T04:00:22;99170.19;;;11.82;100.00
13952;BME280;39535;52.192;9.886;2022-12-31T04:02:48;99162.13;;;11.87;100.00
13952;BME280;39535;52.192;9.886;2022-12-31T04:05:16;99163.00;;;11.87;100.00
13952;BME280;39535;52.192;9.886;2022-12-31T04:07:43;99153.78;;;11.79;100.00
13952;BME280;39535;52.192;9.886;2022-12-31T04:10:13;99151.88;;;11.82;100.00
13952;BME280;39535;52.192;9.886;2022-12-31T04:12:40;99142.88;;;11.89;100.00
13952;BME280;39535;52.192;9.886;2022-12-31T04:15:09;99136.50;;;11.95;100.00
13952;BME280;39535;52.192;9.886;2022-12-31T04:17:35;99139.22;;;11.94;100.00
13952;BME280;39535;52.192;9.886;2022-12-31T04:20:02;99124.38;;;11.94;100.00
13952;BME280;39535;52.192;9.886;2022-12-31T04:22:29;99115.47;;;11.98;100.00
13952;BME280;39535;52.192;9.886;2022-12-31T04:24:55;99115.19;;;12.04;100.00
13952;BME280;39535;52.192;9.886;2022-12-31T04:27:23;99112.44;;;12.07;100.00
13952;BME280;39535;52.192;9.886;2022-12-31T04:29:49;99108.69;;;12.13;100.00
13952;BME280;39535;52.192;9.886;2022-12-31T04:32:15;99118.69;;;12.22;100.00
13952;BME280;39535;52.192;9.886;2022-12-31T04:34:42;99117.50;;;12.29;100.00
13952;BME280;39535;52.192;9.886;2022-12-31T04:37:08;99121.44;;;12.38;100.00
13952;BME280;39535;52.192;9.886;2022-12-31T04:39:34;99145.63;;;12.43;100.00
13952;BME280;39535;52.192;9.886;2022-12-31T04:42:01;99137.72;;;12.45;100.00
13952;BME280;39535;52.192;9.886;2022-12-31T04:44:29;99147.97;;;12.49;100.00
13952;BME280;39535;52.192;9.886;2022-12-31T04:46:55;99145.94;;;12.55;100.00
13952;BME280;39535;52.192;9.886;2022-12-31T04:49:22;99152.97;;;12.54;100.00
13952;BME280;39535;52.192;9.886;2022-12-31T04:51:48;99147.38;;;12.62;100.00
13952;BME280;39535;52.192;9.886;2022-12-31T04:54:14;99151.53;;;12.66;100.00
13952;BME280;39535;52.192;9.886;2022-12-31T04:56:41;99169.25;;;12.78;100.00
13952;BME280;39535;52.192;9.886;2022-12-31T04:59:08;99162.81;;;12.85;100.00
13952;BME280;39535;52.192;9.886;2022-12-31T05:01:35;99173.81;;;12.92;100.00
13952;BME280;39535;52.192;9.886;2022-12-31T05:04:03;99173.69;;;12.95;100.00
13952;BME280;39535;52.192;9.886;2022-12-31T05:06:30;99169.91;;;13.01;100.00
13952;BME280;39535;52.192;9.886;2022-12-31T05:08:56;99190.50;;;13.08;100.00
13952;BME280;39535;52.192;9.886;2022-12-31T05:11:22;99192.34;;;13.06;100.00
13952;BME280;39535;52.192;9.886;2022-12-31T05:13:49;99198.75;;;13.18;100.00
13952;BME280;39535;52.192;9.886;2022-12-31T05:16:15;99202.16;;;13.20;100.00
13952;BME280;39535;52.192;9.886;2022-12-31T05:18:43;99210.44;;;13.30;100.00
13952;BME280;39535;52.192;9.886;2022-12-31T05:21:13;99230.16;;;13.37;100.00
13952;BME280;39535;52.192;9.886;2022-12-31T05:23:42;99225.81;;;13.54;100.00
13952;BME280;39535;52.192;9.886;2022-12-31T05:26:09;99262.69;;;13.50;100.00
13952;BME280;39535;52.192;9.886;2022-12-31T05:28:35;99275.19;;;13.45;100.00
13952;BME280;39535;52.192;9.886;2022-12-31T05:31:01;99284.97;;;13.42;100.00
13952;BME280;39535;52.192;9.886;2022-12-31T05:33:28;99292.16;;;13.38;100.00
13952;BME280;39535;52.192;9.886;2022-12-31T05:35:55;99268.63;;;13.18;100.00
13952;BME280;39535;52.192;9.886;2022-12-31T05:38:23;99233.44;;;12.87;100.00
13952;BME280;39535;52.192;9.886;2022-12-31T05:40:57;99209.00;;;12.69;100.00
13952;BME280;39535;52.192;9.886;2022-12-31T05:43:24;99201.72;;;12.57;100.00
13952;BME280;39535;52.192;9.886;2022-12-31T05:45:50;99205.97;;;12.59;100.00
13952;BME280;39535;52.192;9.886;2022-12-31T05:48:16;99209.41;;;12.60;100.00
13952;BME280;39535;52.192;9.886;2022-12-31T05:50:43;99225.19;;;12.58;100.00
13952;BME280;39535;52.192;9.886;2022-12-31T05:53:10;99223.72;;;12.34;100.00
13952;BME280;39535;52.192;9.886;2022-12-31T05:55:37;99238.56;;;12.33;100.00
13952;BME280;39535;52.192;9.886;2022-12-31T05:58:03;99252.63;;;12.30;100.00
13952;BME280;39535;52.192;9.886;2022-12-31T06:00:29;99256.31;;;12.26;100.00
13952;BME280;39535;52.192;9.886;2022-12-31T06:02:56;99264.31;;;12.23;100.00
13952;BME280;39535;52.192;9.886;2022-12-31T06:05:22;99258.72;;;12.31;100.00
13952;BME280;39535;52.192;9.886;2022-12-31T06:07:48;99265.81;;;12.29;100.00
13952;BME280;39535;52.192;9.886;2022-12-31T06:10:16;99276.50;;;12.23;100.00
13952;BME280;39535;52.192;9.886;2022-12-31T06:12:43;99275.50;;;12.27;100.00
13952;BME280;39535;52.192;9.886;2022-12-31T06:15:09;99284.53;;;12.39;100.00
13952;BME280;39535;52.192;9.886;2022-12-31T06:17:36;99281.13;;;12.37;100.00
13952;BME280;39535;52.192;9.886;2022-12-31T06:20:03;99285.91;;;12.47;100.00
13952;BME280;39535;52.192;9.886;2022-12-31T06:22:29;99277.81;;;12.52;100.00
13952;BME280;39535;52.192;9.886;2022-12-31T06:24:55;99281.16;;;12.56;100.00
13952;BME280;39535;52.192;9.886;2022-12-31T06:27:23;99282.72;;;12.60;100.00
13952;BME280;39535;52.192;9.886;2022-12-31T06:29:49;99287.03;;;12.61;100.00
13952;BME280;39535;52.192;9.886;2022-12-31T06:32:16;99280.88;;;12.62;100.00
13952;BME280;39535;52.192;9.886;2022-12-31T06:34:42;99281.03;;;12.59;100.00
13952;BME280;39535;52.192;9.886;2022-12-31T06:37:09;99278.66;;;12.52;100.00
13952;BME280;39535;52.192;9.886;2022-12-31T06:39:35;99273.88;;;12.43;100.00
13952;BME280;39535;52.192;9.886;2022-12-31T06:42:01;99272.81;;;12.47;100.00
13952;BME280;39535;52.192;9.886;2022-12-31T06:44:29;99277.28;;;12.45;100.00
13952;BME280;39535;52.192;9.886;2022-12-31T06:46:55;99269.13;;;12.51;100.00
13952;BME280;39535;52.192;9.886;2022-12-31T06:49:22;99282.28;;;12.50;100.00
13952;BME280;39535;52.192;9.886;2022-12-31T06:51:48;99264.19;;;12.45;100.00
13952;BME280;39535;52.192;9.886;2022-12-31T06:54:14;99270.97;;;12.49;100.00
13952;BME280;39535;52.192;9.886;2022-12-31T06:56:41;99280.31;;;12.55;100.00
13952;BME280;39535;52.192;9.886;2022-12-31T06:59:21;99271.41;;;12.59;100.00
13952;BME280;39535;52.192;9.886;2022-12-31T07:02:01;99250.09;;;12.67;100.00
13952;BME280;39535;52.192;9.886;2022-12-31T07:04:49;99247.19;;;12.73;100.00
13952;BME280;39535;52.192;9.886;2022-12-31T07:07:25;99249.75;;;12.75;100.00
13952;BME280;39535;52.192;9.886;2022-12-31T07:10:00;99241.59;;;12.81;100.00
13952;BME280;39535;52.192;9.886;2022-12-31T07:12:38;99239.31;;;12.92;100.00
13952;BME280;39535;52.192;9.886;2022-12-31T07:15:13;99241.72;;;12.97;100.00
13952;BME280;39535;52.192;9.886;2022-12-31T07:17:47;99241.25;;;13.06;100.00
13952;BME280;39535;52.192;9.886;2022-12-31T07:20:17;99236.28;;;13.19;100.00
13952;BME280;39535;52.192;9.886;2022-12-31T07:22:45;99256.38;;;13.37;100.00
13952;BME280;39535;52.192;9.886;2022-12-31T07:25:12;99250.50;;;13.49;100.00
13952;BME280;39535;52.192;9.886;2022-12-31T07:27:51;99270.00;;;13.61;100.00
13952;BME280;39535;52.192;9.886;2022-12-31T07:30:23;99286.22;;;13.69;100.00
13952;BME280;39535;52.192;9.886;2022-12-31T07:33:18;99272.19;;;13.70;100.00
13952;BME280;39535;52.192;9.886;2022-12-31T07:35:56;99284.22;;;13.75;100.00
13952;BME280;39535;52.192;9.886;2022-12-31T07:38:32;99274.66;;;13.74;100.00
13952;BME280;39535;52.192;9.886;2022-12-31T07:41:08;99293.09;;;13.72;100.00
13952;BME280;39535;52.192;9.886;2022-12-31T07:43:46;99310.91;;;13.83;100.00
13952;BME280;39535;52.192;9.886;2022-12-31T07:46:20;99307.19;;;13.87;100.00
13952;BME280;39535;52.192;9.886;2022-12-31T07:48:53;99340.91;;;14.12;100.00
13952;BME280;39535;52.192;9.886;2022-12-31T07:51:20;99340.28;;;14.07;100.00
13952;BME280;39535;52.192;9.886;2022-12-31T07:53:46;99374.84;;;14.15;100.00
13952;BME280;39535;52.192;9.886;2022-12-31T07:56:13;99360.81;;;14.16;100.00
13952;BME280;39535;52.192;9.886;2022-12-31T07:58:49;99361.59;;;14.18;100.00
13952;BME280;39535;52.192;9.886;2022-12-31T08:01:29;99385.53;;;14.29;100.00
13952;BME280;39535;52.192;9.886;2022-12-31T08:04:01;99389.50;;;14.37;100.00
13952;BME280;39535;52.192;9.886;2022-12-31T08:06:35;99412.81;;;14.43;100.00
13952;BME280;39535;52.192;9.886;2022-12-31T08:09:06;99431.38;;;14.40;100.00
13952;BME280;39535;52.192;9.886;2022-12-31T08:11:39;99466.50;;;14.55;98.21
13952;BME280;39535;52.192;9.886;2022-12-31T08:14:09;99476.81;;;14.59;98.15
13952;BME280;39535;52.192;9.886;2022-12-31T08:16:37;99448.00;;;14.58;98.62
13952;BME280;39535;52.192;9.886;2022-12-31T08:19:05;99458.56;;;14.56;98.74
13952;BME280;39535;52.192;9.886;2022-12-31T08:21:39;99484.19;;;14.68;97.13
13952;BME280;39535;52.192;9.886;2022-12-31T08:24:14;99489.31;;;14.72;95.90
13952;BME280;39535;52.192;9.886;2022-12-31T08:26:48;99510.94;;;14.77;95.95
13952;BME280;39535;52.192;9.886;2022-12-31T08:29:27;99509.25;;;14.76;96.37
13952;BME280;39535;52.192;9.886;2022-12-31T08:32:04;99522.06;;;14.82;94.95
13952;BME280;39535;52.192;9.886;2022-12-31T08:34:41;99541.91;;;14.87;95.21
13952;BME280;39535;52.192;9.886;2022-12-31T08:37:11;99521.66;;;14.89;95.77
13952;BME280;39535;52.192;9.886;2022-12-31T08:39:49;99527.16;;;14.85;95.67
13952;BME280;39535;52.192;9.886;2022-12-31T08:42:24;99546.09;;;14.92;95.75
13952;BME280;39535;52.192;9.886;2022-12-31T08:44:59;99553.13;;;14.91;95.16
13952;BME280;39535;52.192;9.886;2022-12-31T08:47:33;99548.72;;;14.92;96.06
13952;BME280;39535;52.192;9.886;2022-12-31T08:50:12;99563.72;;;14.89;96.04
13952;BME280;39535;52.192;9.886;2022-12-31T08:52:39;99543.78;;;14.85;96.96
13952;BME280;39535;52.192;9.886;2022-12-31T08:55:06;99541.28;;;14.82;97.18
13952;BME280;39535;52.192;9.886;2022-12-31T08:57:37;99522.06;;;14.82;98.12
13952;BME280;39535;52.192;9.886;2022-12-31T09:00:11;99517.50;;;14.68;98.42
13952;BME280;39535;52.192;9.886;2022-12-31T09:02:59;99519.13;;;14.70;98.76
13952;BME280;39535;52.192;9.886;2022-12-31T09:05:38;99511.34;;;14.69;98.61
13952;BME280;39535;52.192;9.886;2022-12-31T09:08:15;99506.63;;;14.76;98.45
13952;BME280;39535;52.192;9.886;2022-12-31T09:10:53;99506.53;;;14.77;98.70
13952;BME280;39535;52.192;9.886;2022-12-31T09:13:24;99493.41;;;14.77;98.74
13952;BME280;39535;52.192;9.886;2022-12-31T09:15:57;99501.03;;;14.82;99.16
13952;BME280;39535;52.192;9.886;2022-12-31T09:18:28;99489.50;;;14.84;99.10
13952;BME280;39535;52.192;9.886;2022-12-31T09:20:57;99501.50;;;14.90;98.67
13952;BME280;39535;52.192;9.886;2022-12-31T09:23:24;99525.31;;;14.87;97.74
13952;BME280;39535;52.192;9.886;2022-12-31T09:26:00;99536.59;;;14.89;97.01
13952;BME280;39535;52.192;9.886;2022-12-31T09:28:37;99557.75;;;14.86;96.05
13952;BME280;39535;52.192;9.886;2022-12-31T09:31:09;99552.97;;;14.94;96.29
13952;BME280;39535;52.192;9.886;2022-12-31T09:33:41;99564.16;;;14.98;95.87
13952;BME280;39535;52.192;9.886;2022-12-31T09:36:17;99562.63;;;14.94;95.51
13952;BME280;39535;52.192;9.886;2022-12-31T09:38:50;99568.72;;;14.94;95.81
13952;BME280;39535;52.192;9.886;2022-12-31T09:41:36;99568.91;;;14.91;95.11
13952;BME280;39535;52.192;9.886;2022-12-31T09:47:47;99598.78;;;15.06;94.28
13952;BME280;39535;52.192;9.886;2022-12-31T09:50:36;99604.81;;;15.08;93.08
13952;BME280;39535;52.192;9.886;2022-12-31T09:53:34;99632.97;;;15.23;91.83
13952;BME280;39535;52.192;9.886;2022-12-31T09:56:08;99639.94;;;15.24;91.74
13952;BME280;39535;52.192;9.886;2022-12-31T09:58:43;99650.44;;;15.24;91.08
13952;BME280;39535;52.192;9.886;2022-12-31T10:01:20;99652.69;;;15.32;90.33
13952;BME280;39535;52.192;9.886;2022-12-31T10:04:08;99679.25;;;15.43;89.78
13952;BME280;39535;52.192;9.886;2022-12-31T10:06:44;99674.78;;;15.45;89.97
13952;BME280;39535;52.192;9.886;2022-12-31T10:09:26;99682.28;;;15.53;89.18
13952;BME280;39535;52.192;9.886;2022-12-31T10:12:17;99701.38;;;15.57;87.35
13952;BME280;39535;52.192;9.886;2022-12-31T10:14:59;99730.53;;;15.69;86.14
13952;BME280;39535;52.192;9.886;2022-12-31T10:17:36;99761.84;;;15.76;85.20
13952;BME280;39535;52.192;9.886;2022-12-31T10:20:26;99776.91;;;15.89;84.56
13952;BME280;39535;52.192;9.886;2022-12-31T10:23:16;99795.50;;;15.86;83.42
13952;BME280;39535;52.192;9.886;2022-12-31T10:26:08;99780.47;;;15.88;85.05
13952;BME280;39535;52.192;9.886;2022-12-31T10:28:49;99766.63;;;15.85;85.62
13952;BME280;39535;52.192;9.886;2022-12-31T10:31:33;99816.00;;;15.97;83.15
13952;BME280;39535;52.192;9.886;2022-12-31T10:34:14;99803.53;;;16.01;82.92
13952;BME280;39535;52.192;9.886;2022-12-31T10:36:57;99857.72;;;16.05;81.31
13952;BME280;39535;52.192;9.886;2022-12-31T10:39:38;99857.66;;;16.06;80.45
13952;BME280;39535;52.192;9.886;2022-12-31T10:45:35;99870.75;;;16.08;80.66
13952;BME280;39535;52.192;9.886;2022-12-31T10:51:18;99845.44;;;16.05;81.52
13952;BME280;39535;52.192;9.886;2022-12-31T10:57:02;99872.38;;;16.11;80.27
13952;BME280;39535;52.192;9.886;2022-12-31T10:59:52;99865.56;;;16.06;80.66
13952;BME280;39535;52.192;9.886;2022-12-31T11:02:45;99864.41;;;16.12;80.51
13952;BME280;39535;52.192;9.886;2022-12-31T11:05:32;99870.03;;;16.22;78.73
13952;BME280;39535;52.192;9.886;2022-12-31T11:08:24;99880.00;;;16.33;78.95
13952;BME280;39535;52.192;9.886;2022-12-31T11:11:20;99891.50;;;16.32;78.32
13952;BME280;39535;52.192;9.886;2022-12-31T11:14:13;99900.16;;;16.34;79.17
13952;BME280;39535;52.192;9.886;2022-12-31T11:16:57;99901.25;;;16.30;79.85
13952;BME280;39535;52.192;9.886;2022-12-31T11:19:34;99853.06;;;16.27;80.74
13952;BME280;39535;52.192;9.886;2022-12-31T11:22:18;99879.88;;;16.36;79.57
13952;BME280;39535;52.192;9.886;2022-12-31T11:25:13;99879.94;;;16.34;78.94
13952;BME280;39535;52.192;9.886;2022-12-31T11:27:53;99869.41;;;16.34;78.71
13952;BME280;39535;52.192;9.886;2022-12-31T11:30:28;99912.25;;;16.38;79.06
13952;BME280;39535;52.192;9.886;2022-12-31T11:33:12;99910.63;;;16.35;79.32
13952;BME280;39535;52.192;9.886;2022-12-31T11:35:54;99893.34;;;16.30;80.07
13952;BME280;39535;52.192;9.886;2022-12-31T11:38:27;99899.78;;;16.24;79.45
13952;BME280;39535;52.192;9.886;2022-12-31T11:40:59;99895.59;;;16.37;79.96
13952;BME280;39535;52.192;9.886;2022-12-31T11:43:34;99933.38;;;16.36;78.74
13952;BME280;39535;52.192;9.886;2022-12-31T11:46:19;99941.28;;;16.36;78.26
13952;BME280;39535;52.192;9.886;2022-12-31T11:49:00;99940.38;;;16.37;78.83
13952;BME280;39535;52.192;9.886;2022-12-31T11:51:42;99954.16;;;16.42;77.94
13952;BME280;39535;52.192;9.886;2022-12-31T11:54:28;99957.56;;;16.44;77.42
13952;BME280;39535;52.192;9.886;2022-12-31T11:57:03;99974.91;;;16.48;78.20
13952;BME280;39535;52.192;9.886;2022-12-31T11:59:33;99966.63;;;16.39;78.33
13952;BME280;39535;52.192;9.886;2022-12-31T12:02:03;99947.41;;;16.37;79.57
13952;BME280;39535;52.192;9.886;2022-12-31T12:04:43;99913.16;;;16.37;79.68
13952;BME280;39535;52.192;9.886;2022-12-31T12:07:13;99918.69;;;16.32;80.25
13952;BME280;39535;52.192;9.886;2022-12-31T12:09:43;99875.06;;;16.26;81.75
13952;BME280;39535;52.192;9.886;2022-12-31T12:12:09;99857.56;;;16.25;81.02
13952;BME280;39535;52.192;9.886;2022-12-31T12:14:38;99874.03;;;16.29;80.61
13952;BME280;39535;52.192;9.886;2022-12-31T12:17:07;99859.78;;;16.33;81.13
13952;BME280;39535;52.192;9.886;2022-12-31T12:19:41;99873.97;;;16.31;80.37
13952;BME280;39535;52.192;9.886;2022-12-31T12:22:10;99868.31;;;16.38;81.06
13952;BME280;39535;52.192;9.886;2022-12-31T12:24:37;99850.63;;;16.40;80.98
13952;BME280;39535;52.192;9.886;2022-12-31T12:27:04;99858.47;;;16.42;80.65
13952;BME280;39535;52.192;9.886;2022-12-31T12:29:32;99868.06;;;16.43;80.35
13952;BME280;39535;52.192;9.886;2022-12-31T12:32:01;99867.78;;;16.32;79.37
13952;BME280;39535;52.192;9.886;2022-12-31T12:34:29;99889.00;;;16.46;79.96
13952;BME280;39535;52.192;9.886;2022-12-31T12:36:57;99892.06;;;16.54;79.47
13952;BME280;39535;52.192;9.886;2022-12-31T12:39:27;99926.56;;;16.50;78.33
13952;BME280;39535;52.192;9.886;2022-12-31T12:42:01;99962.13;;;16.58;75.75
13952;BME280;39535;52.192;9.886;2022-12-31T12:44:29;99991.50;;;16.68;76.17
13952;BME280;39535;52.192;9.886;2022-12-31T12:46:56;100002.19;;;16.65;75.87
13952;BME280;39535;52.192;9.886;2022-12-31T12:49:26;99995.22;;;16.64;76.66
13952;BME280;39535;52.192;9.886;2022-12-31T12:52:08;100006.53;;;16.66;76.53
13952;BME280;39535;52.192;9.886;2022-12-31T12:54:58;100017.06;;;16.66;76.60
13952;BME280;39535;52.192;9.886;2022-12-31T12:57:33;100016.44;;;16.61;76.09
13952;BME280;39535;52.192;9.886;2022-12-31T13:00:14;99992.97;;;16.56;76.29
13952;BME280;39535;52.192;9.886;2022-12-31T13:03:19;100008.78;;;16.56;75.54
13952;BME280;39535;52.192;9.886;2022-12-31T13:05:57;100012.03;;;16.61;76.57
13952;BME280;39535;52.192;9.886;2022-12-31T13:08:47;99994.06;;;16.52;76.74
13952;BME280;39535;52.192;9.886;2022-12-31T13:11:28;100007.16;;;16.54;76.24
13952;BME280;39535;52.192;9.886;2022-12-31T13:14:02;99997.31;;;16.57;76.89
13952;BME280;39535;52.192;9.886;2022-12-31T13:16:36;100008.63;;;16.59;76.17
13952;BME280;39535;52.192;9.886;2022-12-31T13:19:10;100000.09;;;16.54;76.37
13952;BME280;39535;52.192;9.886;2022-12-31T13:21:47;99990.50;;;16.53;77.53
13952;BME280;39535;52.192;9.886;2022-12-31T13:24:24;99953.06;;;16.46;77.38
13952;BME280;39535;52.192;9.886;2022-12-31T13:26:59;99969.81;;;16.45;77.97
13952;BME280;39535;52.192;9.886;2022-12-31T13:29:31;99933.38;;;16.36;79.20
13952;BME280;39535;52.192;9.886;2022-12-31T13:32:00;99885.13;;;16.36;80.79
13952;BME280;39535;52.192;9.886;2022-12-31T13:34:30;99862.75;;;16.27;80.72